Time;durP1;ratioP1;P1;durP2;ratioP2;P2;SDS_P1;SDS_P2;PMS_P1;PMS_P2;Temp;Humidity;BMP_temperature;BMP_pressure;BME280_temperature;BME280_humidity;BME280_pressure;Samples;Min_cycle;Max_cycle;Signal;HPM_P1;HPM_P2
2022/12/06 00:02:13;;;;;;;3.83;3.03;;;8.80;79.00;8.70;96539.00;;;;5103423;28;20294;-86
2022/12/06 00:04:40;;;;;;;3.80;3.50;;;8.80;79.30;8.70;96538.00;;;;5103517;28;21037;-85
2022/12/06 00:07:10;;;;;;;4.17;3.10;;;8.80;79.20;8.70;96538.00;;;;5103008;28;20222;-85
2022/12/06 00:09:37;;;;;;;5.53;3.20;;;8.90;79.20;8.70;96553.00;;;;5100778;28;20673;-86
2022/12/06 00:12:05;;;;;;;3.40;3.20;;;8.80;79.30;8.70;96550.00;;;;5108696;28;20198;-86
2022/12/06 00:14:32;;;;;;;3.33;3.10;;;8.80;79.30;8.70;96546.00;;;;5108670;28;20245;-86
2022/12/06 00:16:59;;;;;;;3.70;3.40;;;8.80;79.20;8.70;96543.00;;;;5105207;28;20202;-86
2022/12/06 00:19:26;;;;;;;3.70;3.40;;;8.80;79.30;8.70;96541.00;;;;5107718;28;20293;-86
2022/12/06 00:21:53;;;;;;;4.40;3.30;;;8.80;79.30;8.70;96539.00;;;;5107884;28;21266;-85
2022/12/06 00:24:23;;;;;;;3.67;3.30;;;8.80;79.40;8.70;96542.00;;;;5104768;28;20267;-85
2022/12/06 00:26:51;;;;;;;4.33;3.30;;;8.90;79.40;8.80;96543.00;;;;5101132;28;20226;-86
2022/12/06 00:29:23;;;;;;;10.57;4.07;;;8.90;79.40;8.80;96543.00;;;;5101050;28;20202;-85
2022/12/06 00:31:51;;;;;;;4.23;3.30;;;8.90;79.30;8.80;96534.00;;;;5100154;28;20250;-85
2022/12/06 00:34:18;;;;;;;5.73;3.33;;;8.90;79.40;8.80;96528.00;;;;5100048;28;20215;-86
2022/12/06 00:36:45;;;;;;;4.03;3.40;;;8.90;79.40;8.70;96530.00;;;;5100512;28;20194;-84
2022/12/06 00:39:15;;;;;;;3.77;3.47;;;8.90;79.30;8.80;96529.00;;;;5104901;28;20203;-86
2022/12/06 00:41:44;;;;;;;5.23;3.23;;;8.90;79.30;8.80;96521.00;;;;5106056;28;20203;-86
2022/12/06 00:44:12;;;;;;;6.87;3.50;;;8.90;79.20;8.80;96520.00;;;;5106515;28;20246;-86
2022/12/06 00:46:39;;;;;;;5.97;3.90;;;8.90;79.30;8.80;96523.00;;;;5105599;28;20982;-85
2022/12/06 00:49:08;;;;;;;4.17;3.80;;;8.90;79.20;8.80;96527.00;;;;5105742;28;20285;-86
2022/12/06 00:51:37;;;;;;;4.47;3.83;;;8.90;80.00;8.80;96518.00;;;;5107238;28;20225;-86
2022/12/06 00:54:05;;;;;;;7.73;4.20;;;8.90;79.40;8.80;96522.00;;;;5105437;28;20225;-86
2022/12/06 00:56:35;;;;;;;4.87;4.00;;;8.90;79.40;8.80;96515.00;;;;5106977;28;20271;-86
2022/12/06 00:59:05;;;;;;;4.60;4.20;;;8.90;79.30;8.80;96515.00;;;;5103732;28;20281;-86
2022/12/06 01:01:34;;;;;;;8.50;4.23;;;9.00;79.40;8.80;96522.00;;;;5106733;28;20298;-86
2022/12/06 01:04:05;;;;;;;5.00;4.50;;;8.90;79.40;8.80;96516.00;;;;5103315;28;20214;-86
2022/12/06 01:06:35;;;;;;;5.63;4.40;;;8.90;79.80;8.80;96506.00;;;;5105370;28;20603;-85
2022/12/06 01:09:06;;;;;;;6.27;5.10;;;9.00;79.50;8.80;96501.00;;;;5105156;28;20721;-86
2022/12/06 01:11:34;;;;;;;5.53;5.03;;;9.00;79.50;8.80;96497.00;;;;5102054;28;20784;-84
2022/12/06 01:14:01;;;;;;;5.03;4.50;;;8.90;79.50;8.80;96496.00;;;;5103836;28;20325;-86
2022/12/06 01:16:31;;;;;;;5.47;4.93;;;9.00;79.40;8.90;96495.00;;;;5103788;28;20298;-86
2022/12/06 01:19:01;;;;;;;6.07;5.47;;;9.00;79.30;8.80;96489.00;;;;5104664;28;20276;-86
2022/12/06 01:21:30;;;;;;;6.80;5.23;;;9.00;79.20;8.80;96484.00;;;;5103143;28;21009;-84
2022/12/06 01:23:58;;;;;;;5.47;5.07;;;9.00;79.20;8.80;96488.00;;;;5106471;28;20272;-86
2022/12/06 01:26:28;;;;;;;5.70;5.10;;;9.00;79.20;8.80;96478.00;;;;5106463;28;20317;-86
2022/12/06 01:28:57;;;;;;;5.27;4.77;;;9.00;79.30;8.80;96479.00;;;;5103374;28;20693;-85
2022/12/06 01:31:24;;;;;;;5.77;5.27;;;9.00;79.20;8.80;96471.00;;;;5104634;28;20274;-86
2022/12/06 01:33:53;;;;;;;5.53;5.03;;;9.00;79.20;8.80;96472.00;;;;5105785;28;20305;-86
2022/12/06 01:36:23;;;;;;;5.03;4.63;;;9.00;78.90;8.80;96471.00;;;;5103238;28;21187;-86
2022/12/06 01:38:51;;;;;;;5.20;4.70;;;9.00;78.90;8.80;96477.00;;;;5106465;28;20589;-85
2022/12/06 01:41:19;;;;;;;8.40;4.80;;;9.00;79.00;8.80;96477.00;;;;5104414;28;20302;-84
2022/12/06 01:43:47;;;;;;;5.73;4.97;;;8.90;78.90;8.80;96469.00;;;;5103322;28;20232;-85
2022/12/06 01:46:29;;;;;;;5.30;4.80;;;9.00;79.00;8.80;96471.00;;;;5104658;28;20228;-86
2022/12/06 01:49:14;;;;;;;5.53;4.80;;;8.90;79.00;8.80;96464.00;;;;5103887;28;20309;-84
2022/12/06 01:51:46;;;;;;;6.20;5.00;;;9.00;79.00;8.80;96470.00;;;;5100931;28;20294;-86
2022/12/06 01:54:17;;;;;;;5.13;4.73;;;8.90;79.00;8.80;96476.00;;;;5106166;28;20245;-86
2022/12/06 01:56:45;;;;;;;4.77;4.37;;;9.00;79.00;8.80;96475.00;;;;5105155;28;20278;-86
2022/12/06 01:59:12;;;;;;;5.80;5.20;;;8.90;78.90;8.80;96467.00;;;;5106469;28;20281;-86
2022/12/06 02:01:41;;;;;;;5.80;4.80;;;8.90;79.00;8.80;96474.00;;;;5104559;28;20286;-86
2022/12/06 02:04:09;;;;;;;4.83;4.43;;;9.00;78.90;8.80;96468.00;;;;5104000;28;20240;-84
2022/12/06 02:06:40;;;;;;;5.83;4.90;;;8.90;78.80;8.80;96484.00;;;;5103085;28;20331;-86
2022/12/06 02:09:10;;;;;;;6.00;5.03;;;8.90;78.70;8.80;96476.00;;;;5104012;28;20245;-85
2022/12/06 02:11:38;;;;;;;5.37;4.87;;;8.90;78.70;8.80;96477.00;;;;5105775;28;21132;-86
2022/12/06 02:14:13;;;;;;;5.60;5.10;;;8.90;78.80;8.80;96474.00;;;;5103534;28;20214;-86
2022/12/06 02:17:01;;;;;;;7.40;5.30;;;8.90;78.50;8.70;96478.00;;;;5102057;28;20194;-86
2022/12/06 02:20:12;;;;;;;7.63;5.03;;;8.90;78.40;8.70;96465.00;;;;5099093;28;20230;-86
2022/12/06 02:23:34;;;;;;;5.70;5.13;;;8.90;78.30;8.70;96459.00;;;;5038173;28;20652;-85
2022/12/06 02:26:33;;;;;;;5.20;4.77;;;8.90;78.40;8.60;96458.00;;;;5061409;28;20206;-85
2022/12/06 02:29:59;;;;;;;4.80;4.40;;;8.90;78.00;8.60;96462.00;;;;5100141;28;20584;-85
2022/12/06 02:32:36;;;;;;;6.93;4.87;;;8.90;78.00;8.60;96455.00;;;;5100379;28;20277;-85
2022/12/06 02:35:14;;;;;;;4.77;4.37;;;8.80;78.10;8.50;96459.00;;;;5105922;28;21296;-86
2022/12/06 02:37:50;;;;;;;5.87;4.67;;;8.80;77.90;8.50;96453.00;;;;5106951;28;20281;-86
2022/12/06 02:40:24;;;;;;;5.97;4.97;;;8.80;77.80;8.50;96455.00;;;;5106351;28;20283;-86
2022/12/06 02:42:57;;;;;;;5.70;4.77;;;8.70;77.70;8.50;96448.00;;;;5103464;28;20236;-84
2022/12/06 02:45:32;;;;;;;8.17;5.07;;;8.70;77.60;8.40;96447.00;;;;5102648;28;20190;-85
2022/12/06 02:48:04;;;;;;;6.23;5.53;;;8.70;77.50;8.40;96453.00;;;;5104283;28;20297;-86
2022/12/06 02:50:37;;;;;;;6.60;5.20;;;8.60;77.50;8.40;96450.00;;;;5104239;28;20193;-85
2022/12/06 02:53:11;;;;;;;8.27;4.87;;;8.60;77.80;8.40;96450.00;;;;5104881;28;20301;-85
2022/12/06 02:55:39;;;;;;;5.93;5.43;;;8.60;77.90;8.40;96440.00;;;;5104071;28;20242;-85
2022/12/06 02:58:06;;;;;;;5.90;5.30;;;8.60;77.90;8.40;96449.00;;;;5101609;28;20211;-85
2022/12/06 03:00:39;;;;;;;7.67;5.17;;;8.60;77.90;8.40;96462.00;;;;5101319;28;20229;-86
2022/12/06 03:03:51;;;;;;;6.53;5.30;;;8.60;78.00;8.40;96450.00;;;;5099987;28;20773;-86
2022/12/06 03:07:04;;;;;;;5.57;4.97;;;8.60;78.00;8.30;96450.00;;;;5101937;28;20222;-85
2022/12/06 03:09:48;;;;;;;5.70;5.10;;;8.50;77.90;8.30;96446.00;;;;5097685;28;20264;-86
2022/12/06 03:12:28;;;;;;;5.80;5.30;;;8.50;78.10;8.30;96444.00;;;;5103496;28;20194;-84
2022/12/06 03:15:08;;;;;;;9.67;5.10;;;8.50;78.30;8.30;96444.00;;;;5103824;28;20201;-85
2022/12/06 03:17:44;;;;;;;7.20;5.00;;;8.50;78.40;8.30;96443.00;;;;5103613;28;20225;-86
2022/12/06 03:20:21;;;;;;;6.97;5.70;;;8.50;78.30;8.30;96447.00;;;;5105358;28;20217;-86
2022/12/06 03:22:54;;;;;;;6.17;5.57;;;8.50;78.30;8.30;96444.00;;;;5105214;28;20224;-86
2022/12/06 03:25:22;;;;;;;6.13;5.53;;;8.50;78.20;8.30;96441.00;;;;5104230;28;20244;-86
2022/12/06 03:27:52;;;;;;;5.67;5.17;;;8.50;78.10;8.30;96435.00;;;;5104650;28;20297;-86
2022/12/06 03:30:19;;;;;;;7.40;6.23;;;8.50;78.20;8.20;96435.00;;;;5105394;28;20198;-86
2022/12/06 03:32:50;;;;;;;6.27;5.57;;;8.50;78.00;8.20;96428.00;;;;5105244;28;20256;-84
2022/12/06 03:35:25;;;;;;;6.53;5.77;;;8.50;78.10;8.20;96437.00;;;;5103799;28;20233;-85
2022/12/06 03:38:09;;;;;;;6.20;5.57;;;8.50;78.10;8.20;96433.00;;;;5104527;28;20306;-85
2022/12/06 03:40:43;;;;;;;6.10;5.50;;;8.50;78.00;8.20;96431.00;;;;5104853;28;20302;-86
2022/12/06 03:43:11;;;;;;;6.37;5.77;;;8.50;78.00;8.20;96434.00;;;;5104146;28;21592;-86
2022/12/06 03:45:44;;;;;;;6.27;5.67;;;8.40;77.90;8.20;96431.00;;;;5102818;28;20660;-86
2022/12/06 03:48:15;;;;;;;6.07;5.43;;;8.40;77.80;8.20;96429.00;;;;5107027;28;20296;-86
2022/12/06 03:50:52;;;;;;;9.97;5.87;;;8.40;77.90;8.20;96423.00;;;;5107565;28;20202;-86
2022/12/06 03:53:20;;;;;;;6.83;6.10;;;8.40;78.10;8.20;96423.00;;;;5106588;28;20310;-85
2022/12/06 03:55:48;;;;;;;7.63;5.70;;;8.40;78.20;8.20;96435.00;;;;5108530;28;20273;-85
2022/12/06 03:58:15;;;;;;;8.00;5.70;;;8.40;78.10;8.20;96420.00;;;;5105708;28;20205;-86
2022/12/06 04:00:42;;;;;;;7.97;5.67;;;8.40;78.20;8.20;96420.00;;;;5107127;28;20665;-86
2022/12/06 04:03:09;;;;;;;11.43;6.07;;;8.40;78.20;8.20;96414.00;;;;5108426;28;20333;-85
2022/12/06 04:05:36;;;;;;;10.93;6.20;;;8.40;78.10;8.20;96421.00;;;;5108474;28;21112;-86
2022/12/06 04:08:05;;;;;;;6.33;5.60;;;8.40;78.10;8.20;96414.00;;;;5107242;28;20337;-86
2022/12/06 04:10:32;;;;;;;5.97;5.20;;;8.40;78.10;8.20;96420.00;;;;5105397;28;20717;-84
2022/12/06 04:13:04;;;;;;;6.47;5.27;;;8.40;78.00;8.20;96425.00;;;;5102762;28;20223;-85
2022/12/06 04:15:36;;;;;;;6.67;5.93;;;8.30;77.90;8.20;96425.00;;;;5106221;28;20423;-83
2022/12/06 04:18:12;;;;;;;7.37;5.73;;;8.40;77.70;8.10;96419.00;;;;5107469;28;20290;-85
2022/12/06 04:23:35;;;;;;;6.83;6.00;;;8.40;77.90;8.10;96428.00;;;;5105122;28;20272;-84
2022/12/06 04:26:05;;;;;;;8.10;5.60;;;8.30;78.00;8.10;96434.00;;;;5106982;28;20230;-86
2022/12/06 04:39:34;;;;;;;7.20;5.87;;;8.30;77.70;8.00;96438.00;;;;5104723;28;20315;-85
2022/12/06 04:44:59;;;;;;;6.40;5.43;;;8.20;77.50;8.00;96432.00;;;;4996440;28;20235;-84
2022/12/06 04:47:26;;;;;;;7.53;6.13;;;8.20;77.60;8.00;96422.00;;;;5080253;28;20827;-87
2022/12/06 04:49:53;;;;;;;8.17;6.40;;;8.20;77.80;8.00;96422.00;;;;5105703;28;20277;-85
2022/12/06 04:52:21;;;;;;;7.50;6.37;;;8.20;78.60;8.00;96426.00;;;;5107715;28;20278;-86
2022/12/06 04:54:49;;;;;;;6.47;5.87;;;8.20;78.00;8.00;96422.00;;;;5104165;28;20307;-86
2022/12/06 04:57:17;;;;;;;7.40;6.23;;;8.20;77.90;8.00;96419.00;;;;5106836;28;20367;-86
2022/12/06 04:59:46;;;;;;;9.73;6.50;;;8.20;78.00;8.00;96420.00;;;;5105562;28;20243;-84
2022/12/06 05:02:15;;;;;;;7.00;6.30;;;8.20;77.90;8.00;96433.00;;;;5100808;28;20221;-86
2022/12/06 05:04:43;;;;;;;8.77;6.17;;;8.20;77.90;8.00;96420.00;;;;5105551;28;20297;-86
2022/12/06 05:07:11;;;;;;;6.60;5.90;;;8.20;78.00;8.00;96422.00;;;;5101931;28;20222;-86
2022/12/06 05:09:38;;;;;;;8.80;6.03;;;8.20;78.10;8.00;96412.00;;;;5101751;28;20745;-85
2022/12/06 05:12:07;;;;;;;6.87;6.00;;;8.20;78.20;8.00;96411.00;;;;5104915;28;20198;-84
2022/12/06 05:14:34;;;;;;;7.60;5.77;;;8.20;78.20;8.10;96414.00;;;;5101060;28;20246;-86
2022/12/06 05:17:02;;;;;;;6.23;5.43;;;8.20;78.20;8.00;96415.00;;;;5105582;28;20281;-86
2022/12/06 05:19:30;;;;;;;6.80;6.10;;;8.20;78.10;8.00;96410.00;;;;5104791;28;20230;-86
2022/12/06 05:21:57;;;;;;;6.80;6.10;;;8.20;78.10;8.00;96411.00;;;;5105510;28;20207;-84
2022/12/06 05:24:27;;;;;;;10.57;6.03;;;8.20;78.10;8.00;96405.00;;;;5103653;28;20306;-85
2022/12/06 05:26:54;;;;;;;6.77;6.07;;;8.20;78.10;8.00;96416.00;;;;5105788;28;20313;-86
2022/12/06 05:29:23;;;;;;;8.73;6.27;;;8.20;78.10;8.00;96413.00;;;;5105545;28;20301;-85
2022/12/06 05:31:50;;;;;;;7.60;6.00;;;8.20;78.20;8.00;96412.00;;;;5103718;28;20388;-84
2022/12/06 05:34:18;;;;;;;7.73;6.03;;;8.20;78.20;8.00;96412.00;;;;5102130;28;20568;-85
2022/12/06 05:36:45;;;;;;;8.37;6.20;;;8.20;78.00;8.00;96408.00;;;;5105345;28;20282;-85
2022/12/06 05:39:13;;;;;;;6.67;5.60;;;8.20;78.00;8.00;96410.00;;;;5104896;28;20281;-85
2022/12/06 05:41:40;;;;;;;7.50;5.83;;;8.20;78.10;8.00;96408.00;;;;5105653;28;20297;-85
2022/12/06 05:44:09;;;;;;;5.83;5.23;;;8.20;78.10;8.00;96409.00;;;;5105014;28;20245;-84
2022/12/06 05:46:37;;;;;;;7.40;6.47;;;8.20;78.10;8.00;96404.00;;;;5103811;28;20701;-85
2022/12/06 05:49:04;;;;;;;6.97;6.20;;;8.20;78.10;8.00;96409.00;;;;5103334;28;20258;-86
2022/12/06 05:51:31;;;;;;;6.87;5.90;;;8.20;78.80;8.00;96412.00;;;;5105783;28;20277;-86
2022/12/06 05:54:01;;;;;;;8.20;6.77;;;8.20;78.20;8.00;96406.00;;;;5102953;28;20321;-85
2022/12/06 05:56:28;;;;;;;9.10;6.07;;;8.20;78.20;8.00;96409.00;;;;5104077;28;20203;-85
2022/12/06 05:58:55;;;;;;;7.20;6.43;;;8.20;78.20;8.00;96400.00;;;;5104700;28;20717;-86
2022/12/06 06:01:23;;;;;;;7.03;6.10;;;8.20;78.10;8.00;96392.00;;;;5102095;28;20760;-85
2022/12/06 06:03:51;;;;;;;7.50;6.60;;;8.30;78.00;8.00;96404.00;;;;5101860;28;20347;-84
2022/12/06 06:06:18;;;;;;;7.20;6.50;;;8.20;78.00;8.00;96408.00;;;;5105846;28;20234;-84
2022/12/06 06:08:45;;;;;;;8.07;7.13;;;8.20;78.10;8.00;96400.00;;;;5104870;28;20663;-86
2022/12/06 06:11:12;;;;;;;10.13;6.07;;;8.20;78.10;8.00;96403.00;;;;5104781;28;20289;-85
2022/12/06 06:13:39;;;;;;;7.70;6.70;;;8.20;78.10;8.00;96413.00;;;;5106807;28;20233;-85
2022/12/06 06:16:07;;;;;;;8.37;7.00;;;8.20;78.10;8.00;96407.00;;;;5106030;28;20658;-86
2022/12/06 06:18:35;;;;;;;8.10;6.90;;;8.20;78.00;8.00;96413.00;;;;5106308;28;20204;-86
2022/12/06 06:21:04;;;;;;;8.33;7.40;;;8.30;78.10;8.00;96414.00;;;;5105837;28;20205;-85
2022/12/06 06:23:32;;;;;;;8.27;7.50;;;8.20;78.00;8.00;96412.00;;;;5104385;28;20799;-86
2022/12/06 06:25:59;;;;;;;7.17;6.50;;;8.20;78.60;8.00;96417.00;;;;5104767;28;20206;-86
2022/12/06 06:28:29;;;;;;;7.53;6.80;;;8.20;78.00;8.00;96410.00;;;;5102711;28;20635;-85
2022/12/06 06:30:56;;;;;;;7.67;6.27;;;8.20;77.90;8.00;96419.00;;;;5104040;28;20293;-85
2022/12/06 06:33:24;;;;;;;12.70;6.93;;;8.20;78.80;8.00;96417.00;;;;5102002;28;20218;-86
2022/12/06 06:35:51;;;;;;;9.13;6.67;;;8.20;78.10;8.00;96415.00;;;;5101717;28;20194;-86
2022/12/06 06:38:19;;;;;;;7.73;6.80;;;8.20;78.00;8.00;96414.00;;;;5102418;28;20279;-86
2022/12/06 06:40:46;;;;;;;7.67;6.73;;;8.20;78.10;8.00;96411.00;;;;5104042;28;20202;-86
2022/12/06 06:43:20;;;;;;;9.47;7.10;;;8.20;78.10;8.00;96406.00;;;;5103098;28;20225;-86
2022/12/06 06:45:52;;;;;;;8.57;6.80;;;8.20;78.10;8.00;96423.00;;;;5103411;28;20572;-88
2022/12/06 06:48:23;;;;;;;10.40;7.43;;;8.20;78.20;8.10;96430.00;;;;5102858;28;20219;-88
2022/12/06 06:50:51;;;;;;;7.37;6.60;;;8.20;78.20;8.10;96425.00;;;;5103259;28;20229;-87
2022/12/06 06:53:20;;;;;;;9.47;6.07;;;8.20;78.20;8.10;96421.00;;;;5105398;28;20226;-88
2022/12/06 06:55:50;;;;;;;7.80;6.67;;;8.20;78.10;8.20;96435.00;;;;5103563;28;20199;-88
2022/12/06 06:58:17;;;;;;;9.77;6.73;;;8.30;78.20;8.20;96421.00;;;;5104264;28;20298;-88
2022/12/06 07:00:44;;;;;;;7.60;6.43;;;8.20;78.10;8.30;96424.00;;;;5100399;28;20201;-87
2022/12/06 07:03:15;;;;;;;8.57;6.50;;;8.30;78.10;8.30;96420.00;;;;5100006;28;20254;-88
2022/12/06 07:05:43;;;;;;;11.37;6.93;;;8.30;78.10;8.30;96432.00;;;;5099003;28;20226;-88
2022/12/06 07:08:11;;;;;;;10.07;6.67;;;8.30;78.60;8.30;96433.00;;;;5099486;28;20894;-89
2022/12/06 07:10:40;;;;;;;9.93;6.33;;;8.40;77.90;8.30;96426.00;;;;5103291;28;20230;-86
2022/12/06 07:13:07;;;;;;;9.47;6.40;;;8.30;77.80;8.30;96427.00;;;;5102645;28;20309;-88
2022/12/06 07:15:36;;;;;;;7.57;6.77;;;8.40;77.90;8.40;96430.00;;;;5102412;28;20206;-88
2022/12/06 07:18:03;;;;;;;7.70;6.70;;;8.40;77.90;8.40;96428.00;;;;5104090;28;20687;-87
2022/12/06 07:20:30;;;;;;;9.03;6.77;;;8.40;77.90;8.40;96422.00;;;;5101620;28;20277;-88
2022/12/06 07:22:58;;;;;;;13.33;7.00;;;8.40;77.70;8.40;96433.00;;;;5102313;28;20307;-88
2022/12/06 07:25:25;;;;;;;10.73;7.63;;;8.40;77.70;8.40;96431.00;;;;5104606;28;20697;-88
2022/12/06 07:27:54;;;;;;;11.90;7.57;;;8.40;77.70;8.40;96430.00;;;;5103697;28;20275;-86
2022/12/06 07:30:21;;;;;;;8.43;6.77;;;8.40;77.60;8.40;96422.00;;;;5105210;28;20213;-88
2022/12/06 07:32:48;;;;;;;7.90;6.80;;;8.40;77.70;8.40;96425.00;;;;5104047;28;20354;-89
2022/12/06 07:35:16;;;;;;;11.67;8.00;;;8.40;77.60;8.40;96424.00;;;;5102530;28;20397;-89
2022/12/06 07:37:43;;;;;;;8.27;7.10;;;8.50;77.60;8.40;96423.00;;;;5101584;28;20216;-87
2022/12/06 07:40:14;;;;;;;8.30;7.13;;;8.50;77.50;8.40;96426.00;;;;5101815;28;20229;-89
2022/12/06 07:45:27;;;;;;;11.00;7.63;;;8.50;77.40;8.40;96428.00;;;;5102665;28;20197;-89
2022/12/06 07:47:55;;;;;;;12.27;8.47;;;8.50;77.30;8.40;96428.00;;;;5101693;28;20226;-88
2022/12/06 07:50:24;;;;;;;11.23;7.53;;;8.50;77.30;8.40;96427.00;;;;5102989;28;20646;-88
2022/12/06 07:52:51;;;;;;;12.17;8.37;;;8.50;77.30;8.40;96433.00;;;;5103074;28;20297;-88
2022/12/06 07:55:19;;;;;;;10.50;8.07;;;8.50;77.40;8.40;96434.00;;;;5103223;28;20250;-89
2022/12/06 07:57:46;;;;;;;9.93;8.00;;;8.50;77.30;8.50;96430.00;;;;5101113;28;20227;-88
2022/12/06 08:00:15;;;;;;;9.30;7.83;;;8.50;77.40;8.50;96430.00;;;;5102138;28;20264;-88
2022/12/06 08:02:44;;;;;;;12.20;8.10;;;8.50;77.30;8.50;96428.00;;;;5101797;28;20205;-89
2022/12/06 08:05:12;;;;;;;9.43;7.73;;;8.50;77.40;8.50;96433.00;;;;5102103;28;20191;-89
2022/12/06 08:07:40;;;;;;;8.53;7.30;;;8.60;77.30;8.50;96429.00;;;;5102023;28;20233;-89
2022/12/06 08:10:08;;;;;;;10.93;8.50;;;8.50;77.40;8.60;96432.00;;;;5102305;28;20206;-88
2022/12/06 08:12:35;;;;;;;8.37;7.37;;;8.60;77.70;8.60;96421.00;;;;5103003;28;20336;-88
2022/12/06 08:15:03;;;;;;;8.73;7.17;;;8.50;77.60;8.60;96419.00;;;;5100254;28;20202;-88
2022/12/06 08:17:30;;;;;;;9.70;7.97;;;8.60;77.60;8.60;96426.00;;;;5103034;28;20277;-90
2022/12/06 08:19:59;;;;;;;9.63;7.93;;;8.60;77.30;8.70;96420.00;;;;5101989;28;20654;-90
2022/12/06 08:22:27;;;;;;;10.00;7.97;;;8.70;78.20;8.70;96422.00;;;;5105809;28;20580;-90
2022/12/06 08:24:54;;;;;;;12.50;8.37;;;8.70;77.40;8.70;96420.00;;;;5103848;28;20285;-90
2022/12/06 08:27:22;;;;;;;12.77;7.97;;;8.70;77.40;8.70;96410.00;;;;5103237;28;20715;-91
2022/12/06 08:29:49;;;;;;;10.43;8.80;;;8.70;77.30;8.70;96409.00;;;;5104719;28;20258;-90
2022/12/06 08:32:16;;;;;;;10.67;8.03;;;8.70;77.40;8.80;96423.00;;;;5105739;28;20230;-89
2022/12/06 08:34:43;;;;;;;10.80;7.60;;;8.80;77.50;8.80;96436.00;;;;5107753;28;20226;-90
2022/12/06 08:37:12;;;;;;;10.93;8.37;;;8.80;77.20;8.80;96436.00;;;;5107233;28;20206;-89
2022/12/06 08:39:39;;;;;;;11.73;7.80;;;8.80;77.40;8.90;96437.00;;;;5106558;28;20199;-89
2022/12/06 08:42:07;;;;;;;10.90;7.97;;;8.80;77.60;8.90;96441.00;;;;5109648;28;20330;-89
2022/12/06 08:44:35;;;;;;;9.63;7.97;;;8.80;77.60;8.90;96438.00;;;;5107270;28;20246;-89
2022/12/06 08:47:02;;;;;;;9.43;7.97;;;8.90;78.40;9.00;96442.00;;;;5106627;28;20301;-89
2022/12/06 08:49:30;;;;;;;11.43;7.63;;;8.90;77.60;9.00;96440.00;;;;5107701;28;20223;-89
2022/12/06 08:51:59;;;;;;;9.63;7.60;;;9.00;77.50;9.00;96440.00;;;;5106610;28;20575;-88
2022/12/06 08:54:28;;;;;;;9.13;6.90;;;9.00;77.60;9.00;96434.00;;;;5108051;28;20318;-89
2022/12/06 08:56:56;;;;;;;8.83;7.60;;;9.00;77.50;9.10;96442.00;;;;5107392;28;20680;-90
2022/12/06 08:59:23;;;;;;;10.97;7.40;;;9.00;77.20;9.10;96445.00;;;;5107830;28;20226;-90
2022/12/06 09:01:50;;;;;;;10.17;7.90;;;9.00;77.30;9.10;96446.00;;;;5106796;28;20227;-90
2022/12/06 09:04:17;;;;;;;10.73;7.80;;;9.10;77.30;9.10;96439.00;;;;5106779;28;20295;-89
2022/12/06 09:06:46;;;;;;;9.83;7.50;;;9.10;77.10;9.10;96436.00;;;;5108055;28;20242;-90
2022/12/06 09:09:16;;;;;;;9.37;8.03;;;9.10;77.10;9.10;96426.00;;;;5106910;28;20237;-90
2022/12/06 09:11:48;;;;;;;10.50;7.50;;;9.10;76.80;9.20;96433.00;;;;5107365;28;20194;-90
2022/12/06 09:14:18;;;;;;;9.10;7.60;;;9.20;76.80;9.20;96432.00;;;;5107412;28;20222;-90
2022/12/06 09:16:45;;;;;;;7.87;7.03;;;9.10;76.70;9.20;96429.00;;;;5107317;28;20317;-89
2022/12/06 09:19:14;;;;;;;10.30;7.97;;;9.10;76.80;9.20;96431.00;;;;5106163;28;20234;-89
2022/12/06 09:21:45;;;;;;;8.03;7.07;;;9.20;77.00;9.20;96430.00;;;;5107362;28;20202;-90
2022/12/06 09:24:14;;;;;;;9.27;8.30;;;9.20;76.80;9.20;96428.00;;;;5105784;28;20301;-89
2022/12/06 09:26:41;;;;;;;8.27;7.20;;;9.20;76.70;9.20;96427.00;;;;5107252;28;20294;-89
2022/12/06 09:29:10;;;;;;;11.90;7.70;;;9.20;76.80;9.20;96433.00;;;;5106348;28;20736;-89
2022/12/06 09:31:39;;;;;;;8.37;7.43;;;9.20;76.60;9.20;96430.00;;;;5107305;28;20644;-89
2022/12/06 09:34:07;;;;;;;9.23;8.10;;;9.20;76.70;9.30;96433.00;;;;5105841;28;20225;-89
2022/12/06 09:36:41;;;;;;;8.63;7.50;;;9.30;76.70;9.30;96437.00;;;;5106966;28;20210;-90
2022/12/06 09:39:14;;;;;;;10.73;8.33;;;9.40;76.70;9.30;96440.00;;;;5108056;28;20217;-89
2022/12/06 09:42:31;;;;;;;11.23;8.23;;;9.30;76.70;9.30;96431.00;;;;5107329;28;20641;-88
2022/12/06 09:45:43;;;;;;;8.43;6.73;;;9.30;76.40;9.30;96431.00;;;;5106165;28;20234;-89
2022/12/06 09:48:46;;;;;;;8.77;7.33;;;9.40;76.70;9.30;96429.00;;;;5105372;28;20308;-89
2022/12/06 09:51:31;;;;;;;9.20;6.87;;;9.40;76.50;9.40;96414.00;;;;5106564;28;20888;-89
2022/12/06 09:54:19;;;;;;;8.73;7.40;;;9.40;76.60;9.40;96422.00;;;;5105866;28;20348;-88
2022/12/06 09:56:54;;;;;;;9.23;8.07;;;9.40;76.70;9.40;96414.00;;;;5105751;28;20243;-89
2022/12/06 09:59:34;;;;;;;13.30;8.77;;;9.40;76.70;9.40;96414.00;;;;5105770;28;20219;-89
2022/12/06 10:02:34;;;;;;;10.97;7.43;;;9.40;76.90;9.50;96400.00;;;;5105127;28;20226;-89
2022/12/06 10:05:26;;;;;;;7.87;7.07;;;9.50;76.70;9.50;96394.00;;;;5106522;28;20278;-90
2022/12/06 10:08:10;;;;;;;10.53;7.23;;;9.50;76.70;9.50;96389.00;;;;5105662;28;20654;-89
2022/12/06 10:10:55;;;;;;;9.43;8.13;;;9.50;76.70;9.50;96385.00;;;;5105763;28;20249;-89
2022/12/06 10:13:44;;;;;;;8.60;7.70;;;9.50;76.60;9.50;96389.00;;;;5105118;28;20325;-90
2022/12/06 10:16:26;;;;;;;10.77;7.90;;;9.50;76.60;9.60;96373.00;;;;5105795;28;21106;-90
2022/12/06 10:19:11;;;;;;;8.33;7.43;;;9.50;76.60;9.60;96376.00;;;;5104018;28;20237;-89
2022/12/06 10:21:56;;;;;;;8.83;7.40;;;9.60;76.40;9.60;96378.00;;;;5106445;28;20210;-90
2022/12/06 10:24:47;;;;;;;8.43;7.03;;;9.60;76.30;9.60;96371.00;;;;5105171;28;20355;-90
2022/12/06 10:27:25;;;;;;;9.53;7.70;;;9.50;76.30;9.70;96389.00;;;;5104498;28;20206;-90
2022/12/06 10:29:58;;;;;;;10.27;7.43;;;9.60;76.50;9.70;96384.00;;;;5106303;28;20314;-88
2022/12/06 10:32:49;;;;;;;7.47;6.77;;;9.60;76.60;9.70;96378.00;;;;5104405;28;20686;-89
2022/12/06 10:35:30;;;;;;;7.87;6.77;;;9.60;76.40;9.70;96380.00;;;;5106050;28;20288;-90
2022/12/06 10:38:16;;;;;;;8.23;7.27;;;9.60;76.00;9.70;96378.00;;;;5104148;28;20916;-89
2022/12/06 10:40:55;;;;;;;7.23;6.40;;;9.70;75.90;9.70;96384.00;;;;5105558;28;20294;-89
2022/12/06 10:43:30;;;;;;;8.37;6.80;;;9.70;76.00;9.70;96381.00;;;;5104608;28;20625;-89
2022/12/06 10:49:04;;;;;;;7.20;6.50;;;9.70;75.80;9.70;96389.00;;;;5104242;28;20305;-90
2022/12/06 10:51:41;;;;;;;12.70;7.37;;;9.70;75.90;9.70;96383.00;;;;5105470;28;20279;-90
2022/12/06 10:54:22;;;;;;;8.93;7.13;;;9.70;75.90;9.70;96381.00;;;;5104160;28;20218;-89
2022/12/06 10:56:53;;;;;;;8.63;6.90;;;9.70;75.90;9.70;96378.00;;;;5105713;28;20571;-89
2022/12/06 10:59:32;;;;;;;21.00;7.97;;;9.70;76.00;9.70;96375.00;;;;5104070;28;20659;-88
2022/12/06 11:02:16;;;;;;;10.73;7.77;;;9.70;76.20;9.70;96380.00;;;;5104750;28;20631;-90
2022/12/06 11:04:47;;;;;;;9.67;7.50;;;9.70;76.30;9.70;96370.00;;;;5104165;28;20227;-89
2022/12/06 11:07:22;;;;;;;9.03;7.70;;;9.70;76.10;9.70;96372.00;;;;5105053;28;20289;-89
2022/12/06 11:09:52;;;;;;;11.33;8.07;;;9.70;75.90;9.70;96369.00;;;;5104955;28;20304;-90
2022/12/06 11:12:28;;;;;;;11.53;7.77;;;9.70;75.80;9.70;96366.00;;;;5103709;28;20849;-88
2022/12/06 11:15:04;;;;;;;10.13;7.00;;;9.70;75.90;9.70;96371.00;;;;5105594;28;20351;-87
2022/12/06 11:17:37;;;;;;;8.60;6.90;;;9.70;76.60;9.70;96365.00;;;;5104624;28;20651;-90
2022/12/06 11:20:21;;;;;;;13.63;7.40;;;9.70;75.90;9.70;96364.00;;;;5104875;28;20238;-88
2022/12/06 11:23:06;;;;;;;8.47;6.90;;;9.70;76.10;9.80;96356.00;;;;5103367;28;20210;-90
2022/12/06 11:25:45;;;;;;;9.07;7.27;;;9.70;76.00;9.80;96364.00;;;;5104152;28;20255;-89
2022/12/06 11:28:31;;;;;;;10.00;7.37;;;9.70;76.00;9.80;96365.00;;;;5104241;28;20612;-90
2022/12/06 11:30:58;;;;;;;24.40;8.30;;;9.80;76.10;9.80;96361.00;;;;5103968;28;20234;-90
2022/12/06 11:33:31;;;;;;;9.17;8.13;;;9.80;76.30;9.80;96361.00;;;;5102289;28;20256;-90
2022/12/06 11:36:06;;;;;;;11.57;7.20;;;9.80;76.40;9.90;96353.00;;;;5103686;28;20307;-90
2022/12/06 11:38:39;;;;;;;8.37;7.17;;;9.80;76.40;9.80;96360.00;;;;5102628;28;20198;-90
2022/12/06 11:41:13;;;;;;;9.23;7.80;;;9.80;76.40;9.90;96352.00;;;;5104055;28;20289;-90
2022/12/06 11:43:41;;;;;;;9.13;7.50;;;9.80;76.40;9.90;96346.00;;;;5102168;28;20273;-89
2022/12/06 11:46:13;;;;;;;24.13;8.77;;;9.80;76.50;9.90;96360.00;;;;5104166;28;20748;-89
2022/12/06 11:48:41;;;;;;;8.00;7.20;;;9.90;76.70;9.90;96360.00;;;;5102600;28;20198;-90
2022/12/06 11:51:18;;;;;;;9.13;7.10;;;9.90;76.80;10.00;96346.00;;;;5104819;28;20670;-90
2022/12/06 11:54:03;;;;;;;7.77;6.97;;;9.90;76.80;10.00;96342.00;;;;5103868;28;20334;-89